Automated Weather Station

Magsaysay, Infanta, Quezon


Readings

as of November 11, 2016 04:01 PM
Wind Speed
3.4 mm
Rainfall Amount
0.14 mm
Rainfall Intensity
11.3 mm
Air Temperature
mm
Wind Direction
96 mm
Air Humidity
97.7 mm

Data Source: PREDICT (Advanced Science and Technology Institute)

12 HOUR DATA

PREVIOUS DATA

From
To
DateTime Wind Speed Rain Amount Rain Intensity Air Temperature Air Pressure Wind Direction Air Humidity
October 22, 2016 01:02 AM 11.4 0 mm 0 23 927.24 101 99.6
October 21, 2016 11:01 PM 12.1 0 mm 0 23.5 927.9 94 99.7
October 21, 2016 10:01 PM 11 0.01 mm 0.2 23.4 928.03 86 99.6
October 21, 2016 09:02 PM 10.4 0 mm 0 23 928.03 88 99.6
October 21, 2016 08:02 PM 5.3 0.03 mm 6.4 22.3 928.17 99 99.4
October 21, 2016 07:01 PM 10.1 0.02 mm 1.6 22.9 927.63 79 99.2
October 21, 2016 06:01 PM 5.6 0 mm 0 23.3 926.7 107 99.2
October 21, 2016 05:01 PM 2.5 0 mm 0 23.4 926.43 93 98.2
October 21, 2016 04:02 PM 6 0 mm 0 24 926.03 98 95.4
October 21, 2016 03:01 PM 0 0 mm 0 24.6 925.1 0 94.5
October 21, 2016 02:16 PM 5.4 0 mm 0 25.3 924.57 102 92
October 21, 2016 02:01 PM 5.2 0 mm 0 24.7 924.7 97 93.2
October 21, 2016 01:02 PM 7.5 0 mm 0 24.8 924.97 99 93.9
October 21, 2016 12:02 PM 5.1 0 mm 0 27.3 925.5 121 80.6
October 21, 2016 11:46 AM 7.6 0 mm 0 26.8 925.63 133 83.3
October 21, 2016 11:16 AM 7 0 mm 0 27 925.9 117 83.6
October 21, 2016 11:01 AM 2.7 0 mm 0 26.3 926.3 171 84.9
October 21, 2016 10:47 AM 4.5 0 mm 0 25.8 926.3 140 87
October 21, 2016 10:01 AM 5.5 0 mm 0 24.5 927.1 118 93.8
October 21, 2016 05:03 AM 2.8 0 mm 0 21.9 925.37 91 99
October 21, 2016 04:01 AM 2 0 mm 0 21.5 924.7 226 98.5
October 21, 2016 03:01 AM 0.7 0 mm 0 21.9 924.43 275 98.5
October 21, 2016 01:04 AM 2 0 mm 0 22.2 924.84 99 97.7
October 21, 2016 12:01 AM 2.2 0 mm 0 21.9 925.1 219 96.7
October 20, 2016 10:01 PM 5 0 mm 0 21.9 925.24 228 98.5
October 20, 2016 09:01 PM 7.8 0 mm 0 22.1 925.24 250 99.2
October 20, 2016 08:03 PM 10.8 0 mm 0 22.2 924.7 222 99.2
October 20, 2016 07:01 PM 0 0 mm 0 22.3 924.17 0 99.1
October 20, 2016 06:01 PM 8.1 0 mm 0 22.3 922.97 230 98.8
October 20, 2016 05:01 PM 8.2 0 mm 0 22.2 922.84 240 98